sensor_id;sensor_type;location;lat;lon;timestamp;P1;durP1;ratioP1;P2;durP2;ratioP2
42104;SDS011;61464;51.472;5.712;2022-10-26T00:01:04;11.30;;;7.07;;
42104;SDS011;61464;51.472;5.712;2022-10-26T00:03:31;17.88;;;7.22;;
42104;SDS011;61464;51.472;5.712;2022-10-26T00:06:18;15.77;;;7.82;;
42104;SDS011;61464;51.472;5.712;2022-10-26T00:08:47;11.73;;;7.32;;
42104;SDS011;61464;51.472;5.712;2022-10-26T00:11:13;13.95;;;7.85;;
42104;SDS011;61464;51.472;5.712;2022-10-26T00:13:39;16.50;;;7.90;;
42104;SDS011;61464;51.472;5.712;2022-10-26T00:16:13;19.98;;;8.95;;
42104;SDS011;61464;51.472;5.712;2022-10-26T00:18:48;15.45;;;7.60;;
42104;SDS011;61464;51.472;5.712;2022-10-26T00:21:14;18.02;;;7.97;;
42104;SDS011;61464;51.472;5.712;2022-10-26T00:23:41;16.50;;;8.00;;
42104;SDS011;61464;51.472;5.712;2022-10-26T00:26:07;16.98;;;7.72;;
42104;SDS011;61464;51.472;5.712;2022-10-26T00:28:33;11.73;;;6.90;;
42104;SDS011;61464;51.472;5.712;2022-10-26T00:31:03;16.33;;;7.68;;
42104;SDS011;61464;51.472;5.712;2022-10-26T00:33:32;16.73;;;7.03;;
42104;SDS011;61464;51.472;5.712;2022-10-26T00:35:58;12.85;;;7.47;;
42104;SDS011;61464;51.472;5.712;2022-10-26T00:38:24;14.93;;;6.72;;
42104;SDS011;61464;51.472;5.712;2022-10-26T00:40:50;11.93;;;6.03;;
42104;SDS011;61464;51.472;5.712;2022-10-26T00:45:48;12.43;;;6.03;;
42104;SDS011;61464;51.472;5.712;2022-10-26T00:48:22;12.55;;;5.60;;
42104;SDS011;61464;51.472;5.712;2022-10-26T00:50:57;10.82;;;5.40;;
42104;SDS011;61464;51.472;5.712;2022-10-26T00:53:26;13.10;;;6.00;;
42104;SDS011;61464;51.472;5.712;2022-10-26T00:55:54;12.75;;;5.93;;
42104;SDS011;61464;51.472;5.712;2022-10-26T00:58:20;9.30;;;5.13;;
42104;SDS011;61464;51.472;5.712;2022-10-26T01:00:48;13.07;;;5.78;;
42104;SDS011;61464;51.472;5.712;2022-10-26T01:03:15;13.32;;;5.82;;
42104;SDS011;61464;51.472;5.712;2022-10-26T01:05:42;11.05;;;5.00;;
42104;SDS011;61464;51.472;5.712;2022-10-26T01:08:10;12.23;;;5.28;;
42104;SDS011;61464;51.472;5.712;2022-10-26T01:10:38;13.65;;;5.63;;
42104;SDS011;61464;51.472;5.712;2022-10-26T01:13:06;12.40;;;4.72;;
42104;SDS011;61464;51.472;5.712;2022-10-26T01:21:38;10.02;;;4.68;;
42104;SDS011;61464;51.472;5.712;2022-10-26T01:24:20;10.52;;;4.78;;
42104;SDS011;61464;51.472;5.712;2022-10-26T01:38:43;9.30;;;4.53;;
42104;SDS011;61464;51.472;5.712;2022-10-26T01:41:50;15.77;;;4.95;;
42104;SDS011;61464;51.472;5.712;2022-10-26T01:44:30;13.52;;;4.80;;
42104;SDS011;61464;51.472;5.712;2022-10-26T01:47:13;8.65;;;4.00;;
42104;SDS011;61464;51.472;5.712;2022-10-26T01:49:43;8.10;;;4.30;;
42104;SDS011;61464;51.472;5.712;2022-10-26T01:52:16;14.23;;;4.65;;
42104;SDS011;61464;51.472;5.712;2022-10-26T01:54:43;9.40;;;4.90;;
42104;SDS011;61464;51.472;5.712;2022-10-26T01:57:10;9.00;;;4.68;;
42104;SDS011;61464;51.472;5.712;2022-10-26T02:05:53;10.18;;;3.85;;
42104;SDS011;61464;51.472;5.712;2022-10-26T02:09:04;14.60;;;4.35;;
42104;SDS011;61464;51.472;5.712;2022-10-26T02:11:56;10.05;;;4.35;;
42104;SDS011;61464;51.472;5.712;2022-10-26T02:14:35;11.15;;;4.72;;
42104;SDS011;61464;51.472;5.712;2022-10-26T02:17:29;14.95;;;5.28;;
42104;SDS011;61464;51.472;5.712;2022-10-26T02:20:10;11.82;;;4.60;;
42104;SDS011;61464;51.472;5.712;2022-10-26T02:22:46;12.23;;;4.30;;
42104;SDS011;61464;51.472;5.712;2022-10-26T02:25:17;12.77;;;4.18;;
42104;SDS011;61464;51.472;5.712;2022-10-26T02:27:56;9.93;;;3.97;;
42104;SDS011;61464;51.472;5.712;2022-10-26T02:30:28;12.10;;;3.90;;
42104;SDS011;61464;51.472;5.712;2022-10-26T02:32:57;7.97;;;3.90;;
42104;SDS011;61464;51.472;5.712;2022-10-26T02:35:34;5.63;;;3.67;;
42104;SDS011;61464;51.472;5.712;2022-10-26T02:38:03;12.15;;;4.03;;
42104;SDS011;61464;51.472;5.712;2022-10-26T02:40:33;8.73;;;4.72;;
42104;SDS011;61464;51.472;5.712;2022-10-26T02:43:03;8.18;;;4.05;;
42104;SDS011;61464;51.472;5.712;2022-10-26T02:45:36;9.10;;;4.10;;
42104;SDS011;61464;51.472;5.712;2022-10-26T02:48:13;8.70;;;3.47;;
42104;SDS011;61464;51.472;5.712;2022-10-26T02:53:29;8.52;;;3.70;;
42104;SDS011;61464;51.472;5.712;2022-10-26T02:56:23;6.85;;;3.63;;
42104;SDS011;61464;51.472;5.712;2022-10-26T02:59:21;9.38;;;3.42;;
42104;SDS011;61464;51.472;5.712;2022-10-26T03:01:53;9.10;;;3.50;;
42104;SDS011;61464;51.472;5.712;2022-10-26T03:04:19;9.32;;;3.95;;
42104;SDS011;61464;51.472;5.712;2022-10-26T03:06:56;8.18;;;3.70;;
42104;SDS011;61464;51.472;5.712;2022-10-26T03:09:22;6.63;;;3.28;;
42104;SDS011;61464;51.472;5.712;2022-10-26T03:11:49;7.35;;;3.58;;
42104;SDS011;61464;51.472;5.712;2022-10-26T03:14:14;9.93;;;3.80;;
42104;SDS011;61464;51.472;5.712;2022-10-26T03:16:41;8.25;;;3.75;;
42104;SDS011;61464;51.472;5.712;2022-10-26T03:19:06;7.68;;;3.33;;
42104;SDS011;61464;51.472;5.712;2022-10-26T03:21:32;8.23;;;3.67;;
42104;SDS011;61464;51.472;5.712;2022-10-26T03:23:58;9.80;;;4.13;;
42104;SDS011;61464;51.472;5.712;2022-10-26T03:26:24;7.80;;;3.88;;
42104;SDS011;61464;51.472;5.712;2022-10-26T03:28:50;9.50;;;3.60;;
42104;SDS011;61464;51.472;5.712;2022-10-26T03:31:15;11.25;;;3.95;;
42104;SDS011;61464;51.472;5.712;2022-10-26T03:33:41;10.27;;;3.95;;
42104;SDS011;61464;51.472;5.712;2022-10-26T03:36:09;15.85;;;3.97;;
42104;SDS011;61464;51.472;5.712;2022-10-26T03:38:41;9.25;;;4.13;;
42104;SDS011;61464;51.472;5.712;2022-10-26T03:41:36;9.68;;;3.70;;
42104;SDS011;61464;51.472;5.712;2022-10-26T03:44:02;7.20;;;3.80;;
42104;SDS011;61464;51.472;5.712;2022-10-26T03:46:28;9.00;;;4.05;;
42104;SDS011;61464;51.472;5.712;2022-10-26T03:48:54;8.43;;;3.78;;
42104;SDS011;61464;51.472;5.712;2022-10-26T03:51:20;12.68;;;3.70;;
42104;SDS011;61464;51.472;5.712;2022-10-26T03:53:52;6.93;;;4.07;;
42104;SDS011;61464;51.472;5.712;2022-10-26T03:56:23;10.02;;;4.20;;
42104;SDS011;61464;51.472;5.712;2022-10-26T03:58:48;11.07;;;4.25;;
42104;SDS011;61464;51.472;5.712;2022-10-26T04:01:14;8.75;;;4.30;;
42104;SDS011;61464;51.472;5.712;2022-10-26T04:03:40;11.27;;;4.35;;
42104;SDS011;61464;51.472;5.712;2022-10-26T04:06:06;10.15;;;4.15;;
42104;SDS011;61464;51.472;5.712;2022-10-26T04:08:37;10.20;;;4.10;;
42104;SDS011;61464;51.472;5.712;2022-10-26T04:11:04;11.10;;;4.55;;
42104;SDS011;61464;51.472;5.712;2022-10-26T04:13:37;6.47;;;3.90;;
42104;SDS011;61464;51.472;5.712;2022-10-26T04:16:03;7.53;;;4.28;;
42104;SDS011;61464;51.472;5.712;2022-10-26T04:18:29;10.60;;;4.88;;
42104;SDS011;61464;51.472;5.712;2022-10-26T04:20:55;12.65;;;4.72;;
42104;SDS011;61464;51.472;5.712;2022-10-26T04:23:26;10.35;;;5.00;;
42104;SDS011;61464;51.472;5.712;2022-10-26T04:25:52;11.75;;;4.93;;
42104;SDS011;61464;51.472;5.712;2022-10-26T04:28:17;7.78;;;4.57;;
42104;SDS011;61464;51.472;5.712;2022-10-26T04:30:43;20.77;;;4.90;;
42104;SDS011;61464;51.472;5.712;2022-10-26T04:33:11;10.80;;;5.07;;
42104;SDS011;61464;51.472;5.712;2022-10-26T04:35:37;8.48;;;4.60;;
42104;SDS011;61464;51.472;5.712;2022-10-26T04:38:04;9.82;;;5.22;;
42104;SDS011;61464;51.472;5.712;2022-10-26T04:40:31;14.38;;;5.20;;
42104;SDS011;61464;51.472;5.712;2022-10-26T04:42:58;9.90;;;4.88;;
42104;SDS011;61464;51.472;5.712;2022-10-26T04:45:24;10.40;;;4.63;;
42104;SDS011;61464;51.472;5.712;2022-10-26T04:48:05;13.60;;;5.15;;
42104;SDS011;61464;51.472;5.712;2022-10-26T04:50:35;9.02;;;4.80;;
42104;SDS011;61464;51.472;5.712;2022-10-26T04:53:02;11.30;;;5.10;;
42104;SDS011;61464;51.472;5.712;2022-10-26T04:55:29;9.38;;;4.97;;
42104;SDS011;61464;51.472;5.712;2022-10-26T04:57:55;10.82;;;4.95;;
42104;SDS011;61464;51.472;5.712;2022-10-26T05:00:21;11.60;;;4.75;;
42104;SDS011;61464;51.472;5.712;2022-10-26T05:02:47;7.78;;;4.65;;
42104;SDS011;61464;51.472;5.712;2022-10-26T05:05:12;12.60;;;4.82;;
42104;SDS011;61464;51.472;5.712;2022-10-26T05:07:38;10.85;;;4.80;;
42104;SDS011;61464;51.472;5.712;2022-10-26T05:10:04;15.95;;;4.97;;
42104;SDS011;61464;51.472;5.712;2022-10-26T05:12:30;9.00;;;4.30;;
42104;SDS011;61464;51.472;5.712;2022-10-26T05:14:56;9.73;;;4.32;;
42104;SDS011;61464;51.472;5.712;2022-10-26T05:17:26;11.93;;;4.47;;
42104;SDS011;61464;51.472;5.712;2022-10-26T05:19:52;9.43;;;4.18;;
42104;SDS011;61464;51.472;5.712;2022-10-26T05:22:22;16.58;;;5.00;;
42104;SDS011;61464;51.472;5.712;2022-10-26T05:24:49;6.55;;;4.63;;
42104;SDS011;61464;51.472;5.712;2022-10-26T05:27:15;17.23;;;4.78;;
42104;SDS011;61464;51.472;5.712;2022-10-26T05:29:41;8.70;;;4.47;;
42104;SDS011;61464;51.472;5.712;2022-10-26T05:32:07;8.82;;;4.55;;
42104;SDS011;61464;51.472;5.712;2022-10-26T05:34:33;10.85;;;4.20;;
42104;SDS011;61464;51.472;5.712;2022-10-26T05:36:59;8.52;;;4.50;;
42104;SDS011;61464;51.472;5.712;2022-10-26T05:39:24;9.23;;;4.80;;
42104;SDS011;61464;51.472;5.712;2022-10-26T05:41:50;11.77;;;4.45;;
42104;SDS011;61464;51.472;5.712;2022-10-26T05:44:16;11.25;;;4.35;;
42104;SDS011;61464;51.472;5.712;2022-10-26T05:46:42;9.07;;;4.30;;
42104;SDS011;61464;51.472;5.712;2022-10-26T05:49:07;14.15;;;4.57;;
42104;SDS011;61464;51.472;5.712;2022-10-26T05:51:33;26.95;;;5.72;;
42104;SDS011;61464;51.472;5.712;2022-10-26T05:54:01;34.05;;;5.60;;
42104;SDS011;61464;51.472;5.712;2022-10-26T05:56:32;20.75;;;5.68;;
42104;SDS011;61464;51.472;5.712;2022-10-26T05:59:03;26.02;;;5.50;;
42104;SDS011;61464;51.472;5.712;2022-10-26T06:06:42;25.73;;;5.10;;
42104;SDS011;61464;51.472;5.712;2022-10-26T06:09:12;14.73;;;4.78;;
42104;SDS011;61464;51.472;5.712;2022-10-26T06:11:39;16.17;;;4.75;;
42104;SDS011;61464;51.472;5.712;2022-10-26T06:14:05;27.27;;;6.05;;
42104;SDS011;61464;51.472;5.712;2022-10-26T06:16:57;31.23;;;6.57;;
42104;SDS011;61464;51.472;5.712;2022-10-26T06:31:10;17.55;;;4.72;;
42104;SDS011;61464;51.472;5.712;2022-10-26T06:33:37;18.63;;;4.07;;
42104;SDS011;61464;51.472;5.712;2022-10-26T06:36:20;19.27;;;4.60;;
42104;SDS011;61464;51.472;5.712;2022-10-26T06:38:52;12.60;;;4.35;;
42104;SDS011;61464;51.472;5.712;2022-10-26T06:41:25;15.48;;;4.93;;
42104;SDS011;61464;51.472;5.712;2022-10-26T06:43:51;13.98;;;4.75;;
42104;SDS011;61464;51.472;5.712;2022-10-26T06:51:57;11.13;;;4.57;;
42104;SDS011;61464;51.472;5.712;2022-10-26T06:54:31;8.00;;;4.20;;
42104;SDS011;61464;51.472;5.712;2022-10-26T06:57:14;12.73;;;5.10;;
42104;SDS011;61464;51.472;5.712;2022-10-26T07:02:32;14.40;;;4.57;;
42104;SDS011;61464;51.472;5.712;2022-10-26T07:04:58;12.15;;;3.83;;
42104;SDS011;61464;51.472;5.712;2022-10-26T07:07:24;11.02;;;4.35;;
42104;SDS011;61464;51.472;5.712;2022-10-26T07:09:55;9.10;;;3.72;;
42104;SDS011;61464;51.472;5.712;2022-10-26T07:12:20;11.55;;;4.05;;
42104;SDS011;61464;51.472;5.712;2022-10-26T07:14:46;9.82;;;4.43;;
42104;SDS011;61464;51.472;5.712;2022-10-26T07:17:12;8.77;;;3.90;;
42104;SDS011;61464;51.472;5.712;2022-10-26T07:19:38;11.88;;;3.75;;
42104;SDS011;61464;51.472;5.712;2022-10-26T07:22:04;11.35;;;3.95;;
42104;SDS011;61464;51.472;5.712;2022-10-26T07:24:30;15.55;;;4.15;;
42104;SDS011;61464;51.472;5.712;2022-10-26T07:26:56;11.05;;;3.70;;
42104;SDS011;61464;51.472;5.712;2022-10-26T07:29:23;13.98;;;3.92;;
42104;SDS011;61464;51.472;5.712;2022-10-26T07:31:50;14.68;;;4.20;;
42104;SDS011;61464;51.472;5.712;2022-10-26T07:34:17;9.07;;;4.10;;
42104;SDS011;61464;51.472;5.712;2022-10-26T07:36:43;6.03;;;3.80;;
42104;SDS011;61464;51.472;5.712;2022-10-26T07:39:09;7.97;;;3.53;;
42104;SDS011;61464;51.472;5.712;2022-10-26T07:41:35;10.73;;;4.03;;
42104;SDS011;61464;51.472;5.712;2022-10-26T07:44:00;9.38;;;3.58;;
42104;SDS011;61464;51.472;5.712;2022-10-26T07:46:26;12.23;;;3.60;;
42104;SDS011;61464;51.472;5.712;2022-10-26T07:48:52;11.15;;;3.63;;
42104;SDS011;61464;51.472;5.712;2022-10-26T07:51:19;9.10;;;3.65;;
42104;SDS011;61464;51.472;5.712;2022-10-26T07:53:44;6.45;;;3.05;;
42104;SDS011;61464;51.472;5.712;2022-10-26T07:56:11;9.75;;;3.72;;
42104;SDS011;61464;51.472;5.712;2022-10-26T07:58:37;5.93;;;2.85;;
42104;SDS011;61464;51.472;5.712;2022-10-26T08:01:07;6.45;;;3.20;;
42104;SDS011;61464;51.472;5.712;2022-10-26T08:03:35;8.00;;;3.50;;
42104;SDS011;61464;51.472;5.712;2022-10-26T08:06:02;10.10;;;3.28;;
42104;SDS011;61464;51.472;5.712;2022-10-26T08:08:29;7.78;;;3.50;;
42104;SDS011;61464;51.472;5.712;2022-10-26T08:10:56;7.50;;;3.40;;
42104;SDS011;61464;51.472;5.712;2022-10-26T08:13:22;6.85;;;3.50;;
42104;SDS011;61464;51.472;5.712;2022-10-26T08:15:48;9.43;;;3.58;;
42104;SDS011;61464;51.472;5.712;2022-10-26T08:18:14;9.55;;;4.00;;
42104;SDS011;61464;51.472;5.712;2022-10-26T08:20:40;6.38;;;3.63;;
42104;SDS011;61464;51.472;5.712;2022-10-26T08:23:06;9.15;;;4.13;;
42104;SDS011;61464;51.472;5.712;2022-10-26T08:25:32;7.75;;;4.47;;
42104;SDS011;61464;51.472;5.712;2022-10-26T08:28:02;6.55;;;3.40;;
42104;SDS011;61464;51.472;5.712;2022-10-26T08:30:29;7.18;;;4.15;;
42104;SDS011;61464;51.472;5.712;2022-10-26T08:32:59;7.68;;;3.85;;
42104;SDS011;61464;51.472;5.712;2022-10-26T08:35:27;8.20;;;3.85;;
42104;SDS011;61464;51.472;5.712;2022-10-26T08:37:53;11.35;;;4.18;;
42104;SDS011;61464;51.472;5.712;2022-10-26T08:40:27;11.73;;;3.63;;
42104;SDS011;61464;51.472;5.712;2022-10-26T08:43:09;8.57;;;3.38;;
42104;SDS011;61464;51.472;5.712;2022-10-26T08:46:07;9.65;;;3.97;;
42104;SDS011;61464;51.472;5.712;2022-10-26T08:48:55;6.50;;;3.22;;
42104;SDS011;61464;51.472;5.712;2022-10-26T08:51:38;7.47;;;2.90;;
42104;SDS011;61464;51.472;5.712;2022-10-26T08:56:52;9.40;;;2.85;;
42104;SDS011;61464;51.472;5.712;2022-10-26T08:59:43;8.90;;;2.63;;
42104;SDS011;61464;51.472;5.712;2022-10-26T09:02:25;5.43;;;2.83;;
42104;SDS011;61464;51.472;5.712;2022-10-26T09:04:52;6.45;;;2.72;;
42104;SDS011;61464;51.472;5.712;2022-10-26T09:13:11;5.25;;;2.42;;
42104;SDS011;61464;51.472;5.712;2022-10-26T09:16:19;7.00;;;2.63;;
42104;SDS011;61464;51.472;5.712;2022-10-26T09:21:27;6.65;;;2.38;;
42104;SDS011;61464;51.472;5.712;2022-10-26T09:24:21;5.30;;;2.40;;
42104;SDS011;61464;51.472;5.712;2022-10-26T09:29:24;4.50;;;2.20;;
42104;SDS011;61464;51.472;5.712;2022-10-26T09:31:55;5.30;;;2.15;;
42104;SDS011;61464;51.472;5.712;2022-10-26T09:37:14;3.65;;;1.90;;
42104;SDS011;61464;51.472;5.712;2022-10-26T09:39:57;7.28;;;2.33;;
42104;SDS011;61464;51.472;5.712;2022-10-26T09:45:53;7.38;;;1.95;;
42104;SDS011;61464;51.472;5.712;2022-10-26T09:51:10;7.75;;;2.03;;
42104;SDS011;61464;51.472;5.712;2022-10-26T09:53:36;7.72;;;2.30;;
42104;SDS011;61464;51.472;5.712;2022-10-26T09:56:06;4.80;;;1.95;;
42104;SDS011;61464;51.472;5.712;2022-10-26T10:01:30;5.72;;;2.30;;
42104;SDS011;61464;51.472;5.712;2022-10-26T10:06:40;5.35;;;2.00;;
42104;SDS011;61464;51.472;5.712;2022-10-26T10:09:15;4.47;;;2.10;;
42104;SDS011;61464;51.472;5.712;2022-10-26T10:11:43;9.40;;;1.95;;
42104;SDS011;61464;51.472;5.712;2022-10-26T10:14:19;6.57;;;1.90;;
42104;SDS011;61464;51.472;5.712;2022-10-26T10:16:54;5.68;;;2.15;;
42104;SDS011;61464;51.472;5.712;2022-10-26T10:19:30;3.47;;;2.05;;
42104;SDS011;61464;51.472;5.712;2022-10-26T10:22:11;7.07;;;1.98;;
42104;SDS011;61464;51.472;5.712;2022-10-26T10:24:52;4.63;;;1.70;;
42104;SDS011;61464;51.472;5.712;2022-10-26T10:27:27;12.30;;;2.58;;
42104;SDS011;61464;51.472;5.712;2022-10-26T10:29:55;4.70;;;2.03;;
42104;SDS011;61464;51.472;5.712;2022-10-26T10:33:05;5.95;;;2.20;;
42104;SDS011;61464;51.472;5.712;2022-10-26T10:35:35;6.80;;;1.90;;
42104;SDS011;61464;51.472;5.712;2022-10-26T10:38:14;6.07;;;2.25;;
42104;SDS011;61464;51.472;5.712;2022-10-26T10:40:51;5.07;;;1.83;;
42104;SDS011;61464;51.472;5.712;2022-10-26T10:43:22;5.45;;;1.90;;
42104;SDS011;61464;51.472;5.712;2022-10-26T10:45:50;5.65;;;2.00;;
42104;SDS011;61464;51.472;5.712;2022-10-26T10:48:20;3.80;;;1.77;;
42104;SDS011;61464;51.472;5.712;2022-10-26T10:50:53;5.25;;;1.90;;
42104;SDS011;61464;51.472;5.712;2022-10-26T10:59:14;3.90;;;1.83;;
42104;SDS011;61464;51.472;5.712;2022-10-26T11:08:06;7.22;;;1.90;;
42104;SDS011;61464;51.472;5.712;2022-10-26T11:13:49;4.47;;;1.75;;
42104;SDS011;61464;51.472;5.712;2022-10-26T11:16:41;5.22;;;1.98;;
42104;SDS011;61464;51.472;5.712;2022-10-26T11:22:26;6.07;;;1.65;;
42104;SDS011;61464;51.472;5.712;2022-10-26T11:25:17;4.43;;;1.42;;
42104;SDS011;61464;51.472;5.712;2022-10-26T11:28:25;4.93;;;1.40;;
42104;SDS011;61464;51.472;5.712;2022-10-26T11:31:05;4.82;;;1.63;;
42104;SDS011;61464;51.472;5.712;2022-10-26T11:33:46;8.02;;;1.52;;
42104;SDS011;61464;51.472;5.712;2022-10-26T11:36:36;4.88;;;1.60;;
42104;SDS011;61464;51.472;5.712;2022-10-26T11:39:18;6.45;;;1.90;;
42104;SDS011;61464;51.472;5.712;2022-10-26T11:41:57;6.78;;;1.70;;
42104;SDS011;61464;51.472;5.712;2022-10-26T11:47:48;4.55;;;1.50;;
42104;SDS011;61464;51.472;5.712;2022-10-26T11:50:22;5.78;;;1.88;;
42104;SDS011;61464;51.472;5.712;2022-10-26T11:53:11;4.70;;;1.33;;
42104;SDS011;61464;51.472;5.712;2022-10-26T11:55:46;3.83;;;1.55;;
42104;SDS011;61464;51.472;5.712;2022-10-26T11:58:58;2.80;;;1.40;;
42104;SDS011;61464;51.472;5.712;2022-10-26T12:01:24;4.03;;;1.40;;
42104;SDS011;61464;51.472;5.712;2022-10-26T12:03:52;4.45;;;1.40;;
42104;SDS011;61464;51.472;5.712;2022-10-26T12:06:21;4.60;;;1.33;;
42104;SDS011;61464;51.472;5.712;2022-10-26T12:09:16;5.63;;;1.30;;
42104;SDS011;61464;51.472;5.712;2022-10-26T12:20:52;3.17;;;1.40;;
42104;SDS011;61464;51.472;5.712;2022-10-26T12:23:38;5.63;;;1.42;;
42104;SDS011;61464;51.472;5.712;2022-10-26T12:26:59;4.97;;;1.38;;
42104;SDS011;61464;51.472;5.712;2022-10-26T12:29:34;2.72;;;1.20;;
42104;SDS011;61464;51.472;5.712;2022-10-26T12:37:55;5.57;;;1.60;;
42104;SDS011;61464;51.472;5.712;2022-10-26T12:43:42;5.78;;;1.92;;
42104;SDS011;61464;51.472;5.712;2022-10-26T12:45:43;4.85;;;1.67;;
42104;SDS011;61464;51.472;5.712;2022-10-26T12:48:21;3.00;;;1.77;;
42104;SDS011;61464;51.472;5.712;2022-10-26T12:59:49;2.72;;;1.27;;
42104;SDS011;61464;51.472;5.712;2022-10-26T13:08:18;2.83;;;1.00;;
42104;SDS011;61464;51.472;5.712;2022-10-26T13:11:05;4.45;;;1.60;;
42104;SDS011;61464;51.472;5.712;2022-10-26T13:13:38;5.78;;;1.27;;
42104;SDS011;61464;51.472;5.712;2022-10-26T13:16:07;4.15;;;1.42;;
42104;SDS011;61464;51.472;5.712;2022-10-26T13:18:40;5.05;;;1.33;;
42104;SDS011;61464;51.472;5.712;2022-10-26T13:21:10;3.40;;;1.20;;
42104;SDS011;61464;51.472;5.712;2022-10-26T13:26:26;4.53;;;1.08;;
42104;SDS011;61464;51.472;5.712;2022-10-26T13:33:55;2.35;;;1.00;;
42104;SDS011;61464;51.472;5.712;2022-10-26T13:39:27;3.40;;;1.08;;
42104;SDS011;61464;51.472;5.712;2022-10-26T13:41:59;4.22;;;1.25;;
42104;SDS011;61464;51.472;5.712;2022-10-26T13:47:15;5.35;;;1.10;;
42104;SDS011;61464;51.472;5.712;2022-10-26T13:50:04;2.65;;;1.05;;
42104;SDS011;61464;51.472;5.712;2022-10-26T13:52:37;2.65;;;1.00;;
42104;SDS011;61464;51.472;5.712;2022-10-26T13:55:12;1.77;;;0.70;;
42104;SDS011;61464;51.472;5.712;2022-10-26T14:03:34;3.92;;;0.90;;
42104;SDS011;61464;51.472;5.712;2022-10-26T14:06:13;6.35;;;1.05;;
42104;SDS011;61464;51.472;5.712;2022-10-26T14:08:51;3.40;;;1.02;;
42104;SDS011;61464;51.472;5.712;2022-10-26T14:11:26;2.65;;;0.98;;
42104;SDS011;61464;51.472;5.712;2022-10-26T14:14:17;3.33;;;1.30;;
42104;SDS011;61464;51.472;5.712;2022-10-26T14:16:54;2.88;;;0.95;;
42104;SDS011;61464;51.472;5.712;2022-10-26T14:21:59;2.47;;;0.93;;
42104;SDS011;61464;51.472;5.712;2022-10-26T14:24:27;4.65;;;1.20;;
42104;SDS011;61464;51.472;5.712;2022-10-26T14:26:58;3.50;;;0.90;;
42104;SDS011;61464;51.472;5.712;2022-10-26T14:29:26;1.58;;;0.70;;
42104;SDS011;61464;51.472;5.712;2022-10-26T14:31:56;4.68;;;0.77;;
42104;SDS011;61464;51.472;5.712;2022-10-26T14:34:22;2.75;;;0.88;;
42104;SDS011;61464;51.472;5.712;2022-10-26T14:36:52;3.97;;;1.10;;
42104;SDS011;61464;51.472;5.712;2022-10-26T14:39:30;2.00;;;0.93;;
42104;SDS011;61464;51.472;5.712;2022-10-26T14:42:30;3.20;;;1.33;;
42104;SDS011;61464;51.472;5.712;2022-10-26T14:45:04;7.07;;;1.27;;
42104;SDS011;61464;51.472;5.712;2022-10-26T14:47:51;3.28;;;1.17;;
42104;SDS011;61464;51.472;5.712;2022-10-26T14:50:22;2.78;;;1.23;;
42104;SDS011;61464;51.472;5.712;2022-10-26T14:52:52;4.35;;;1.00;;
42104;SDS011;61464;51.472;5.712;2022-10-26T14:55:21;2.58;;;1.10;;
42104;SDS011;61464;51.472;5.712;2022-10-26T14:57:50;3.83;;;1.33;;
42104;SDS011;61464;51.472;5.712;2022-10-26T15:00:29;4.35;;;1.30;;
42104;SDS011;61464;51.472;5.712;2022-10-26T15:02:56;3.78;;;1.13;;
42104;SDS011;61464;51.472;5.712;2022-10-26T15:07:48;3.42;;;1.08;;
42104;SDS011;61464;51.472;5.712;2022-10-26T15:13:10;2.40;;;1.20;;
42104;SDS011;61464;51.472;5.712;2022-10-26T15:15:52;3.00;;;1.20;;
42104;SDS011;61464;51.472;5.712;2022-10-26T15:20:54;5.72;;;1.33;;
42104;SDS011;61464;51.472;5.712;2022-10-26T15:23:21;2.88;;;1.10;;
42104;SDS011;61464;51.472;5.712;2022-10-26T15:25:53;2.65;;;1.20;;
42104;SDS011;61464;51.472;5.712;2022-10-26T15:28:24;3.90;;;1.33;;
42104;SDS011;61464;51.472;5.712;2022-10-26T15:31:04;4.40;;;1.52;;
42104;SDS011;61464;51.472;5.712;2022-10-26T15:33:32;3.97;;;1.25;;
42104;SDS011;61464;51.472;5.712;2022-10-26T15:38:44;8.13;;;1.70;;
42104;SDS011;61464;51.472;5.712;2022-10-26T15:41:17;5.30;;;2.40;;
42104;SDS011;61464;51.472;5.712;2022-10-26T15:44:00;5.72;;;1.83;;
42104;SDS011;61464;51.472;5.712;2022-10-26T15:46:33;6.97;;;1.85;;
42104;SDS011;61464;51.472;5.712;2022-10-26T15:49:03;5.75;;;1.70;;
42104;SDS011;61464;51.472;5.712;2022-10-26T15:51:31;6.65;;;1.60;;
42104;SDS011;61464;51.472;5.712;2022-10-26T15:54:01;6.13;;;2.10;;
42104;SDS011;61464;51.472;5.712;2022-10-26T15:56:29;5.80;;;1.83;;
42104;SDS011;61464;51.472;5.712;2022-10-26T15:58:55;9.27;;;2.40;;
42104;SDS011;61464;51.472;5.712;2022-10-26T16:01:22;6.68;;;2.05;;
42104;SDS011;61464;51.472;5.712;2022-10-26T16:03:51;9.20;;;2.00;;
42104;SDS011;61464;51.472;5.712;2022-10-26T16:06:18;6.13;;;2.20;;
42104;SDS011;61464;51.472;5.712;2022-10-26T16:08:59;8.77;;;1.70;;
42104;SDS011;61464;51.472;5.712;2022-10-26T16:11:28;7.13;;;1.80;;
42104;SDS011;61464;51.472;5.712;2022-10-26T16:13:55;5.32;;;1.50;;
42104;SDS011;61464;51.472;5.712;2022-10-26T16:16:21;5.90;;;1.85;;
42104;SDS011;61464;51.472;5.712;2022-10-26T16:18:48;8.75;;;1.73;;
42104;SDS011;61464;51.472;5.712;2022-10-26T16:21:18;4.80;;;1.77;;
42104;SDS011;61464;51.472;5.712;2022-10-26T16:23:46;6.97;;;2.50;;
42104;SDS011;61464;51.472;5.712;2022-10-26T16:26:18;12.55;;;2.63;;
42104;SDS011;61464;51.472;5.712;2022-10-26T16:28:45;5.30;;;2.20;;
42104;SDS011;61464;51.472;5.712;2022-10-26T16:31:15;11.85;;;2.20;;
42104;SDS011;61464;51.472;5.712;2022-10-26T16:33:43;8.07;;;1.80;;
42104;SDS011;61464;51.472;5.712;2022-10-26T16:36:10;4.95;;;1.90;;
42104;SDS011;61464;51.472;5.712;2022-10-26T16:38:37;7.53;;;2.10;;
42104;SDS011;61464;51.472;5.712;2022-10-26T16:43:34;7.20;;;1.83;;
42104;SDS011;61464;51.472;5.712;2022-10-26T16:46:09;6.88;;;2.00;;
42104;SDS011;61464;51.472;5.712;2022-10-26T16:48:42;9.13;;;1.95;;
42104;SDS011;61464;51.472;5.712;2022-10-26T16:51:10;7.72;;;1.85;;
42104;SDS011;61464;51.472;5.712;2022-10-26T16:53:38;6.45;;;2.15;;
42104;SDS011;61464;51.472;5.712;2022-10-26T16:56:05;5.97;;;1.63;;
42104;SDS011;61464;51.472;5.712;2022-10-26T16:58:42;5.18;;;1.63;;
42104;SDS011;61464;51.472;5.712;2022-10-26T17:01:09;6.60;;;1.65;;
42104;SDS011;61464;51.472;5.712;2022-10-26T17:03:37;5.22;;;1.88;;
42104;SDS011;61464;51.472;5.712;2022-10-26T17:06:05;5.13;;;1.80;;
42104;SDS011;61464;51.472;5.712;2022-10-26T17:08:32;10.35;;;2.28;;
42104;SDS011;61464;51.472;5.712;2022-10-26T17:11:01;6.03;;;2.50;;
42104;SDS011;61464;51.472;5.712;2022-10-26T17:13:32;7.65;;;2.53;;
42104;SDS011;61464;51.472;5.712;2022-10-26T17:16:02;7.03;;;1.95;;
42104;SDS011;61464;51.472;5.712;2022-10-26T17:18:30;5.22;;;2.03;;
42104;SDS011;61464;51.472;5.712;2022-10-26T17:20:56;5.20;;;2.40;;
42104;SDS011;61464;51.472;5.712;2022-10-26T17:23:22;8.10;;;2.58;;
42104;SDS011;61464;51.472;5.712;2022-10-26T17:25:51;5.90;;;2.60;;
42104;SDS011;61464;51.472;5.712;2022-10-26T17:28:17;8.13;;;2.58;;
42104;SDS011;61464;51.472;5.712;2022-10-26T17:30:42;5.75;;;2.42;;
42104;SDS011;61464;51.472;5.712;2022-10-26T17:33:08;9.63;;;2.92;;
42104;SDS011;61464;51.472;5.712;2022-10-26T17:35:36;7.60;;;2.90;;
42104;SDS011;61464;51.472;5.712;2022-10-26T17:38:02;10.90;;;3.13;;
42104;SDS011;61464;51.472;5.712;2022-10-26T17:40:28;9.57;;;3.25;;
42104;SDS011;61464;51.472;5.712;2022-10-26T17:42:54;8.20;;;3.20;;
42104;SDS011;61464;51.472;5.712;2022-10-26T17:45:20;6.47;;;2.83;;
42104;SDS011;61464;51.472;5.712;2022-10-26T17:47:46;7.00;;;3.53;;
42104;SDS011;61464;51.472;5.712;2022-10-26T17:50:12;9.88;;;2.95;;
42104;SDS011;61464;51.472;5.712;2022-10-26T17:52:37;8.52;;;3.30;;
42104;SDS011;61464;51.472;5.712;2022-10-26T17:55:03;8.90;;;3.25;;
42104;SDS011;61464;51.472;5.712;2022-10-26T17:57:30;6.18;;;2.90;;
42104;SDS011;61464;51.472;5.712;2022-10-26T17:59:57;9.27;;;3.40;;
42104;SDS011;61464;51.472;5.712;2022-10-26T18:02:23;12.07;;;3.28;;